createdAt,value
2017-09-18T00:01:10.852Z,12.77
2017-09-18T00:03:39.559Z,12.86
2017-09-18T00:06:07.915Z,12.77
2017-09-18T00:08:35.808Z,12.82
2017-09-18T00:11:04.161Z,12.75
2017-09-18T00:13:32.055Z,12.75
2017-09-18T00:16:00.381Z,12.80
2017-09-18T00:18:28.287Z,12.77
2017-09-18T00:20:56.854Z,12.69
2017-09-18T00:23:24.779Z,12.42
2017-09-18T00:25:52.680Z,12.34
2017-09-18T00:28:20.574Z,12.14
2017-09-18T00:30:48.914Z,12.09
2017-09-18T00:33:16.902Z,12.11
2017-09-18T00:35:44.820Z,12.04
2017-09-18T00:38:12.723Z,12.02
2017-09-18T00:40:40.625Z,11.98
2017-09-18T00:43:08.933Z,12.07
2017-09-18T00:45:36.859Z,12.12
2017-09-18T00:48:04.750Z,12.08
2017-09-18T00:50:32.656Z,11.96
2017-09-18T00:53:00.571Z,11.94
2017-09-18T00:55:29.782Z,11.92
2017-09-18T00:57:57.696Z,11.93
2017-09-18T01:00:25.608Z,11.99
2017-09-18T01:02:53.941Z,12.03
2017-09-18T01:05:21.924Z,12.04
2017-09-18T01:07:49.823Z,11.99
2017-09-18T01:10:18.127Z,12.01
2017-09-18T01:12:46.099Z,12.03
2017-09-18T01:15:14.029Z,12.08
2017-09-18T01:17:42.322Z,12.04
2017-09-18T01:20:10.238Z,12.14
2017-09-18T01:22:38.179Z,12.11
2017-09-18T01:25:06.219Z,12.20
2017-09-18T01:27:34.533Z,12.21
2017-09-18T01:30:02.527Z,12.19
2017-09-18T01:32:30.459Z,12.18
2017-09-18T01:34:58.472Z,12.19
2017-09-18T01:37:26.452Z,12.11
2017-09-18T01:39:54.365Z,12.13
2017-09-18T01:42:22.302Z,12.12
2017-09-18T01:44:50.191Z,12.15
2017-09-18T01:47:18.103Z,12.13
2017-09-18T01:49:46.003Z,12.11
2017-09-18T01:52:14.311Z,12.11
2017-09-18T01:54:42.201Z,12.12
2017-09-18T01:57:10.193Z,12.05
2017-09-18T01:59:38.094Z,12.06
2017-09-18T02:02:06.414Z,12.06
2017-09-18T02:04:34.402Z,12.01
2017-09-18T02:07:02.313Z,11.96
2017-09-18T02:09:30.619Z,11.89
2017-09-18T02:11:58.621Z,11.89
2017-09-18T02:14:26.518Z,11.95
2017-09-18T02:16:54.877Z,11.88
2017-09-18T02:19:22.774Z,11.74
2017-09-18T02:21:50.723Z,11.73
2017-09-18T02:24:19.014Z,11.73
2017-09-18T02:26:47.351Z,11.74
2017-09-18T02:29:15.257Z,11.72
2017-09-18T02:31:43.551Z,11.74
2017-09-18T02:34:11.522Z,11.81
2017-09-18T02:36:39.436Z,11.79
2017-09-18T02:39:07.345Z,11.71
2017-09-18T02:41:35.267Z,11.70
2017-09-18T02:44:03.175Z,11.61
2017-09-18T02:46:31.494Z,11.68
2017-09-18T02:48:59.488Z,11.76
2017-09-18T02:51:27.386Z,11.74
2017-09-18T02:53:55.739Z,11.79
2017-09-18T02:56:23.652Z,11.75
2017-09-18T02:58:51.551Z,11.63
2017-09-18T03:01:19.531Z,11.61
2017-09-18T03:03:47.431Z,11.50
2017-09-18T03:06:15.784Z,11.31
2017-09-18T03:08:43.687Z,11.27
2017-09-18T03:11:11.588Z,11.05
2017-09-18T03:13:39.527Z,11.09
2017-09-18T03:16:07.455Z,10.93
2017-09-18T03:18:35.367Z,10.88
2017-09-18T03:21:03.387Z,10.83
2017-09-18T03:23:31.288Z,10.79
2017-09-18T03:25:59.601Z,10.82
2017-09-18T03:28:27.602Z,10.86
2017-09-18T03:30:55.508Z,10.89
2017-09-18T03:33:23.439Z,10.92
2017-09-18T03:35:51.360Z,10.89
2017-09-18T03:38:19.255Z,10.83
2017-09-18T03:40:47.252Z,10.78
2017-09-18T03:43:15.186Z,10.74
2017-09-18T03:45:43.092Z,10.65
2017-09-18T03:48:11.049Z,10.66
2017-09-18T03:50:38.975Z,10.57
2017-09-18T03:53:06.885Z,10.55
2017-09-18T03:55:34.817Z,10.53
2017-09-18T03:58:02.727Z,10.48
2017-09-18T04:00:30.630Z,10.53
2017-09-18T04:02:58.569Z,10.53
2017-09-18T04:05:26.867Z,10.45
2017-09-18T04:07:54.804Z,10.42
2017-09-18T04:10:22.735Z,10.38
2017-09-18T04:12:50.748Z,10.35
2017-09-18T04:15:18.655Z,10.27
2017-09-18T04:17:46.728Z,10.32
2017-09-18T04:20:14.649Z,10.24
2017-09-18T04:22:42.554Z,10.19
2017-09-18T04:25:10.574Z,10.09
2017-09-18T04:27:38.507Z,10.16
2017-09-18T04:30:06.415Z,10.19
2017-09-18T04:32:34.681Z,10.13
2017-09-18T04:35:02.658Z,10.07
2017-09-18T04:37:30.628Z,10.03
2017-09-18T04:39:58.568Z,9.90
2017-09-18T04:42:26.584Z,9.90
2017-09-18T04:44:54.886Z,9.98
2017-09-18T04:47:22.824Z,10.01
2017-09-18T04:49:50.736Z,9.92
2017-09-18T04:52:18.627Z,9.85
2017-09-18T04:54:46.546Z,9.87
2017-09-18T04:57:14.845Z,9.80
2017-09-18T04:59:42.762Z,9.87
2017-09-18T05:02:10.703Z,9.89
2017-09-18T05:04:38.612Z,9.91
2017-09-18T05:07:06.909Z,9.94
2017-09-18T05:09:34.824Z,9.97
2017-09-18T05:12:02.791Z,10.05
2017-09-18T05:14:30.770Z,10.21
2017-09-18T05:19:33.323Z,10.77
2017-09-18T05:22:01.331Z,11.41
2017-09-18T05:24:29.243Z,11.91
2017-09-18T05:26:57.142Z,12.55
2017-09-18T05:29:25.137Z,13.34
2017-09-18T05:31:53.037Z,14.09
2017-09-18T05:34:21.337Z,14.92
2017-09-18T05:36:49.343Z,15.95
2017-09-18T05:39:17.331Z,16.82
2017-09-18T05:41:45.286Z,17.47
2017-09-18T05:44:13.213Z,18.29
2017-09-18T05:46:41.111Z,18.48
2017-09-18T05:49:09.030Z,19.22
2017-09-18T05:51:36.953Z,19.86
2017-09-18T05:54:04.862Z,20.66
2017-09-18T05:56:33.147Z,21.53
2017-09-18T05:59:01.091Z,22.53
2017-09-18T06:01:29.412Z,22.68
2017-09-18T06:03:57.326Z,23.45
2017-09-18T06:06:25.253Z,24.31
2017-09-18T06:08:53.160Z,25.09
2017-09-18T06:11:21.096Z,25.71
2017-09-18T06:13:49.022Z,26.50
2017-09-18T06:16:17.359Z,26.71
2017-09-18T06:18:45.268Z,27.20
2017-09-18T06:21:13.580Z,26.77
2017-09-18T06:23:41.557Z,26.74
2017-09-18T06:26:09.504Z,27.48
2017-09-18T06:28:37.466Z,27.11
2017-09-18T06:31:05.383Z,27.46
2017-09-18T06:33:33.291Z,25.91
2017-09-18T06:36:01.228Z,25.93
2017-09-18T06:38:29.144Z,26.02
2017-09-18T06:40:57.054Z,26.38
2017-09-18T06:43:24.985Z,26.88
2017-09-18T06:45:52.891Z,27.40
2017-09-18T06:48:20.863Z,27.09
2017-09-18T06:50:48.823Z,27.14
2017-09-18T06:53:16.776Z,26.98
2017-09-18T06:55:44.761Z,27.33
2017-09-18T06:58:12.696Z,27.46
2017-09-18T07:00:40.601Z,28.02
2017-09-18T07:03:08.524Z,29.04
2017-09-18T07:05:36.534Z,29.04
2017-09-18T07:08:04.507Z,29.03
2017-09-18T07:10:32.415Z,30.13
2017-09-18T07:13:00.360Z,30.25
2017-09-18T07:15:28.286Z,30.19
2017-09-18T07:17:56.192Z,29.71
2017-09-18T07:20:24.129Z,29.96
2017-09-18T07:22:52.031Z,30.61
2017-09-18T07:25:19.926Z,29.29
2017-09-18T07:27:47.850Z,29.63
2017-09-18T07:30:15.775Z,30.16
2017-09-18T07:32:43.670Z,30.23
2017-09-18T07:35:11.600Z,30.87
2017-09-18T07:37:39.514Z,31.12
2017-09-18T07:40:07.440Z,31.86
2017-09-18T07:42:35.356Z,31.19
2017-09-18T07:45:03.250Z,30.21
2017-09-18T07:47:31.604Z,29.79
2017-09-18T07:49:59.959Z,29.68
2017-09-18T07:52:27.872Z,29.26
2017-09-18T07:54:56.215Z,29.60
2017-09-18T07:57:24.141Z,29.67
2017-09-18T07:59:52.072Z,30.41
2017-09-18T08:02:19.995Z,30.85
2017-09-18T08:04:47.919Z,31.38
2017-09-18T08:07:16.235Z,30.41
2017-09-18T08:09:44.135Z,29.46
2017-09-18T08:12:12.067Z,29.73
2017-09-18T08:14:39.970Z,30.95
2017-09-18T08:17:07.896Z,30.79
2017-09-18T08:19:35.900Z,31.63
2017-09-18T08:22:03.870Z,31.68
2017-09-18T08:24:31.848Z,32.38
2017-09-18T08:26:59.772Z,32.18
2017-09-18T08:29:27.683Z,32.44
2017-09-18T08:31:55.592Z,33.59
2017-09-18T08:34:23.903Z,33.24
2017-09-18T08:36:51.996Z,32.91
2017-09-18T08:39:19.896Z,34.40
2017-09-18T08:41:48.218Z,33.42
2017-09-18T08:44:16.168Z,33.80
2017-09-18T08:46:44.180Z,32.49
2017-09-18T08:49:12.255Z,33.41
2017-09-18T08:51:40.156Z,33.98
2017-09-18T08:54:08.464Z,34.88
2017-09-18T08:56:36.391Z,35.26
2017-09-18T08:59:04.745Z,36.32
2017-09-18T09:01:32.666Z,35.48
2017-09-18T09:04:01.434Z,35.72
2017-09-18T09:06:29.326Z,34.21
2017-09-18T09:08:57.231Z,34.09
2017-09-18T09:11:25.160Z,33.90
2017-09-18T09:13:53.067Z,33.77
2017-09-18T09:16:21.040Z,32.31
2017-09-18T09:18:49.615Z,32.48
2017-09-18T09:21:17.549Z,32.96
2017-09-18T09:23:45.448Z,33.66
2017-09-18T09:26:13.388Z,32.87
2017-09-18T09:28:41.464Z,32.76
2017-09-18T09:31:09.358Z,32.41
2017-09-18T09:33:37.298Z,32.77
2017-09-18T09:36:05.203Z,33.14
2017-09-18T09:38:33.107Z,32.57
2017-09-18T09:41:01.039Z,33.49
2017-09-18T09:43:28.943Z,34.70
2017-09-18T09:45:56.856Z,35.04
2017-09-18T09:48:24.834Z,35.44
2017-09-18T09:50:52.731Z,34.78
2017-09-18T09:53:21.088Z,35.49
2017-09-18T09:55:49.052Z,35.00
2017-09-18T09:58:16.959Z,33.84
2017-09-18T10:00:44.888Z,34.47
2017-09-18T10:03:12.811Z,34.70
2017-09-18T10:05:40.707Z,35.04
2017-09-18T10:08:08.680Z,33.86
2017-09-18T10:10:36.652Z,33.88
2017-09-18T10:13:04.619Z,33.00
2017-09-18T10:15:32.527Z,31.99
2017-09-18T10:18:00.856Z,31.48
2017-09-18T10:20:28.830Z,31.49
2017-09-18T10:22:56.788Z,31.32
2017-09-18T10:25:24.883Z,31.00
2017-09-18T10:27:52.898Z,30.18
2017-09-18T10:30:20.867Z,29.31
2017-09-18T10:32:48.891Z,29.39
2017-09-18T10:35:16.791Z,28.18
2017-09-18T10:37:44.703Z,28.58
2017-09-18T10:40:12.638Z,28.54
2017-09-18T10:42:40.556Z,28.16
2017-09-18T10:45:08.528Z,28.78
2017-09-18T10:47:36.747Z,28.71
2017-09-18T10:50:04.651Z,29.29
2017-09-18T10:52:32.556Z,29.34
2017-09-18T10:55:00.495Z,30.31
2017-09-18T10:57:28.485Z,30.40
2017-09-18T10:59:56.390Z,29.48
2017-09-18T11:02:24.307Z,29.84
2017-09-18T11:04:52.216Z,29.76
2017-09-18T11:07:20.138Z,29.86
2017-09-18T11:09:48.064Z,28.72
2017-09-18T11:12:15.976Z,28.22
2017-09-18T11:14:43.889Z,26.89
2017-09-18T11:17:12.203Z,25.67
2017-09-18T11:19:40.191Z,24.58
2017-09-18T11:22:08.113Z,24.09
2017-09-18T11:24:36.136Z,23.38
2017-09-18T11:27:04.039Z,23.02
2017-09-18T11:29:31.956Z,22.94
2017-09-18T11:31:59.880Z,22.70
2017-09-18T11:34:27.791Z,22.59
2017-09-18T11:36:55.695Z,21.74
2017-09-18T11:39:24.034Z,21.78
2017-09-18T11:41:51.943Z,21.63
2017-09-18T11:44:19.842Z,21.29
2017-09-18T11:46:47.776Z,21.56
2017-09-18T11:49:16.076Z,21.50
2017-09-18T11:51:43.984Z,21.50
2017-09-18T11:54:11.979Z,21.47
2017-09-18T11:56:39.945Z,21.44
2017-09-18T11:59:07.894Z,21.60
2017-09-18T12:01:35.824Z,21.59
2017-09-18T12:04:03.830Z,21.56
2017-09-18T12:06:32.092Z,21.59
2017-09-18T12:09:00.031Z,21.50
2017-09-18T12:11:27.938Z,21.61
2017-09-18T12:13:55.859Z,21.54
2017-09-18T12:16:23.779Z,21.56
2017-09-18T12:18:51.709Z,21.16
2017-09-18T12:21:19.679Z,21.38
2017-09-18T12:23:47.632Z,21.45
2017-09-18T12:26:15.565Z,21.65
2017-09-18T12:28:43.476Z,21.80
2017-09-18T12:31:11.658Z,21.74
2017-09-18T12:33:39.663Z,21.61
2017-09-18T12:36:07.574Z,21.39
2017-09-18T12:38:35.599Z,21.35
2017-09-18T12:41:03.503Z,21.22
2017-09-18T12:43:31.403Z,21.12
2017-09-18T12:45:59.413Z,20.87
2017-09-18T12:48:27.336Z,20.64
2017-09-18T12:50:55.241Z,20.70
2017-09-18T12:53:23.263Z,20.77
2017-09-18T12:55:51.187Z,20.80
2017-09-18T12:58:19.095Z,21.15
2017-09-18T13:00:47.020Z,21.07
2017-09-18T13:03:14.931Z,20.97
2017-09-18T13:05:42.832Z,21.01
2017-09-18T13:08:10.825Z,20.86
2017-09-18T13:10:38.736Z,20.66
2017-09-18T13:13:06.647Z,20.58
2017-09-18T13:15:34.630Z,20.25
2017-09-18T13:18:02.540Z,20.31
2017-09-18T13:20:30.443Z,20.07
2017-09-18T13:22:58.377Z,20.03
2017-09-18T13:25:26.305Z,20.19
2017-09-18T13:27:54.220Z,20.18
2017-09-18T13:30:22.227Z,20.16
2017-09-18T13:32:50.164Z,20.06
2017-09-18T13:35:18.067Z,19.97
2017-09-18T13:37:45.992Z,20.11
2017-09-18T13:40:13.905Z,20.21
2017-09-18T13:42:41.933Z,20.19
2017-09-18T13:45:09.873Z,19.97
2017-09-18T13:47:39.275Z,19.84
2017-09-18T13:50:07.181Z,19.87
2017-09-18T13:52:35.125Z,20.00
2017-09-18T13:55:03.027Z,20.25
2017-09-18T13:57:30.927Z,20.37
2017-09-18T13:59:58.855Z,20.34
2017-09-18T14:02:26.870Z,20.48
2017-09-18T14:04:54.777Z,20.53
2017-09-18T14:07:22.711Z,20.35
2017-09-18T14:09:50.719Z,20.36
2017-09-18T14:12:18.644Z,20.12
2017-09-18T14:14:47.015Z,20.04
2017-09-18T14:17:14.928Z,19.96
2017-09-18T14:19:42.838Z,19.87
2017-09-18T14:22:10.831Z,19.91
2017-09-18T14:24:39.131Z,20.00
2017-09-18T14:27:07.080Z,19.94
2017-09-18T14:29:35.406Z,19.86
2017-09-18T14:32:03.768Z,19.76
2017-09-18T14:34:31.668Z,19.89
2017-09-18T14:36:59.643Z,19.80
2017-09-18T14:39:27.557Z,19.45
2017-09-18T14:41:55.468Z,19.31
2017-09-18T14:44:23.424Z,19.30
2017-09-18T14:46:51.322Z,19.23
2017-09-18T14:49:19.215Z,19.29
2017-09-18T14:51:47.541Z,19.25
2017-09-18T14:54:15.448Z,19.30
2017-09-18T14:56:43.361Z,19.36
2017-09-18T14:59:11.287Z,19.33
2017-09-18T15:01:39.659Z,19.26
2017-09-18T15:04:07.568Z,19.13
2017-09-18T15:06:35.511Z,19.13
2017-09-18T15:09:03.423Z,19.19
2017-09-18T15:11:31.394Z,19.15
2017-09-18T15:13:59.496Z,19.17
2017-09-18T15:16:27.396Z,18.99
2017-09-18T15:18:55.313Z,18.87
2017-09-18T15:21:23.246Z,18.78
2017-09-18T15:23:51.157Z,18.76
2017-09-18T15:26:19.063Z,18.74
2017-09-18T15:28:47.396Z,18.61
2017-09-18T15:31:15.325Z,18.55
2017-09-18T15:33:43.236Z,18.39
2017-09-18T15:36:11.598Z,18.45
2017-09-18T15:38:39.584Z,18.39
2017-09-18T15:41:07.511Z,18.32
2017-09-18T15:43:35.530Z,18.22
2017-09-18T15:46:03.446Z,18.23
2017-09-18T15:48:32.380Z,18.24
2017-09-18T15:51:00.311Z,18.23
2017-09-18T15:53:28.314Z,18.19
2017-09-18T15:55:56.313Z,18.05
2017-09-18T15:58:24.631Z,18.03
2017-09-18T16:00:52.634Z,18.07
2017-09-18T16:03:20.539Z,18.02
2017-09-18T16:05:48.897Z,17.88
2017-09-18T16:08:16.815Z,17.84
2017-09-18T16:10:44.820Z,17.89
2017-09-18T16:13:12.779Z,17.82
2017-09-18T16:15:40.687Z,17.85
2017-09-18T16:18:08.994Z,17.82
2017-09-18T16:20:36.927Z,17.71
2017-09-18T16:23:05.267Z,17.75
2017-09-18T16:25:33.167Z,17.61
2017-09-18T16:28:01.524Z,17.60
2017-09-18T16:30:29.436Z,17.60
2017-09-18T16:32:57.474Z,17.52
2017-09-18T16:35:25.408Z,17.47
2017-09-18T16:37:53.945Z,17.42
2017-09-18T16:40:22.282Z,17.35
2017-09-18T16:42:50.208Z,17.25
2017-09-18T16:45:18.117Z,17.08
2017-09-18T16:47:46.161Z,17.03
2017-09-18T16:50:14.160Z,16.97
2017-09-18T16:52:42.065Z,16.90
2017-09-18T16:55:10.455Z,16.86
2017-09-18T16:57:38.394Z,16.81
2017-09-18T17:00:06.311Z,16.69
2017-09-18T17:02:34.220Z,16.53
2017-09-18T17:05:02.219Z,16.43
2017-09-18T17:07:30.516Z,16.45
2017-09-18T17:09:58.530Z,16.32
2017-09-18T17:12:26.872Z,16.31
2017-09-18T17:14:54.870Z,16.24
2017-09-18T17:17:22.843Z,16.13
2017-09-18T17:19:50.772Z,16.12
2017-09-18T17:22:18.672Z,15.96
2017-09-18T17:24:46.611Z,15.97
2017-09-18T17:27:14.541Z,15.89
2017-09-18T17:29:42.858Z,15.82
2017-09-18T17:32:11.110Z,15.73
2017-09-18T17:34:39.107Z,15.73
2017-09-18T17:37:07.099Z,15.62
2017-09-18T17:39:35.030Z,15.52
